createdAt,value
2019-02-26T00:04:45.198Z,6.8
2019-02-26T00:09:57.477Z,7
2019-02-26T00:15:03.496Z,7
2019-02-26T00:20:12.735Z,6.8
2019-02-26T00:25:17.735Z,6.6
2019-02-26T00:30:18.605Z,6.4
2019-02-26T00:35:27.610Z,6.7
2019-02-26T00:40:36.952Z,6.6
2019-02-26T00:45:39.310Z,6.4
2019-02-26T00:50:45.005Z,6.5
2019-02-26T00:55:58.360Z,6.7
2019-02-26T01:00:58.776Z,6.6
2019-02-26T01:06:07.974Z,6.5
2019-02-26T01:11:13.952Z,6.4
2019-02-26T01:16:19.542Z,6
2019-02-26T01:21:29.013Z,6.3
2019-02-26T01:26:32.025Z,6.4
2019-02-26T01:31:37.925Z,6.2
2019-02-26T01:36:47.125Z,6.5
2019-02-26T01:41:51.045Z,6.6
2019-02-26T01:46:57.766Z,6.2
2019-02-26T01:51:59.112Z,6.3
2019-02-26T01:57:08.360Z,6.4
2019-02-26T02:02:20.245Z,6.1
2019-02-26T02:07:24.111Z,6
2019-02-26T02:12:30.025Z,6.2
2019-02-26T02:17:35.526Z,6
2019-02-26T02:22:39.775Z,6.4
2019-02-26T02:27:38.201Z,6.2
2019-02-26T02:32:43.202Z,6.4
2019-02-26T02:37:44.360Z,5.9
2019-02-26T02:42:50.355Z,6.1
2019-02-26T02:48:03.232Z,5.9
2019-02-26T02:53:05.810Z,6.1
2019-02-26T02:58:18.006Z,6
2019-02-26T03:03:19.783Z,6.2
2019-02-26T03:08:24.827Z,6.4
2019-02-26T03:13:30.346Z,5.8
2019-02-26T03:18:35.569Z,5.9
2019-02-26T03:23:45.569Z,5.8
2019-02-26T03:28:47.953Z,6.1
2019-02-26T03:33:47.663Z,5.8
2019-02-26T03:38:59.774Z,6.1
2019-02-26T03:44:03.232Z,6.1
2019-02-26T03:49:04.480Z,5.9
2019-02-26T03:54:09.793Z,6.1
2019-02-26T03:59:15.204Z,5.8
2019-02-26T04:04:25.603Z,5.7
2019-02-26T04:09:27.569Z,5.9
2019-02-26T04:14:32.584Z,5.7
2019-02-26T04:19:37.500Z,5.8
2019-02-26T04:24:38.957Z,6
2019-02-26T04:29:49.166Z,6.3
2019-02-26T04:34:44.717Z,5.9
2019-02-26T04:39:52.569Z,5.9
2019-02-26T04:45:04.871Z,5.9
2019-02-26T04:50:08.924Z,5.6
2019-02-26T04:55:05.183Z,5.7
2019-02-26T05:00:11.736Z,5.8
2019-02-26T05:05:17.150Z,5.7
2019-02-26T05:10:29.676Z,5.5
2019-02-26T05:15:33.689Z,5.6
2019-02-26T05:20:47.973Z,5.3
2019-02-26T05:25:45.706Z,5.6
2019-02-26T05:30:52.196Z,5.3
2019-02-26T05:35:57.665Z,5.6
2019-02-26T05:41:02.740Z,6
2019-02-26T05:46:08.036Z,5.4
2019-02-26T05:51:13.468Z,5.7
2019-02-26T05:56:22.878Z,6.6
2019-02-26T06:01:28.628Z,6.9
2019-02-26T06:06:34.024Z,5.9
2019-02-26T06:11:46.403Z,6.1
2019-02-26T06:16:50.781Z,6.3
2019-02-26T06:21:56.471Z,6
2019-02-26T06:26:51.380Z,6.1
2019-02-26T06:31:56.913Z,6
2019-02-26T06:37:02.237Z,5.7
2019-02-26T06:42:05.194Z,5.8
2019-02-26T06:47:09.885Z,5.9
2019-02-26T06:52:18.640Z,5.9
2019-02-26T06:57:24.032Z,5.6
2019-02-26T07:02:30.228Z,6.3
2019-02-26T07:07:34.217Z,5.9
2019-02-26T07:12:43.052Z,6
2019-02-26T07:17:46.888Z,6.2
2019-02-26T07:22:52.603Z,6.3
2019-02-26T07:28:02.891Z,6.4
2019-02-26T07:33:12.251Z,6.2
2019-02-26T07:38:10.496Z,6.6
2019-02-26T07:43:22.403Z,6.1
2019-02-26T07:48:23.715Z,6.3
2019-02-26T07:53:26.874Z,6.5
2019-02-26T07:58:35.945Z,6.2
2019-02-26T08:03:37.282Z,6.1
2019-02-26T08:08:46.588Z,6.5
2019-02-26T08:13:43.410Z,6.3
2019-02-26T08:18:49.332Z,6.4
2019-02-26T08:23:53.668Z,6.7
2019-02-26T08:29:02.591Z,6.4
2019-02-26T08:34:05.033Z,6.1
2019-02-26T08:39:12.404Z,6.1
2019-02-26T08:44:10.252Z,6.3
2019-02-26T08:49:17.979Z,6.5
2019-02-26T08:54:24.130Z,6.1
2019-02-26T08:59:20.458Z,6.3
2019-02-26T09:04:26.159Z,6.4
2019-02-26T09:09:33.644Z,6.3
2019-02-26T09:14:42.730Z,6.3
2019-02-26T09:19:44.250Z,6.4
2019-02-26T09:24:54.336Z,6.3
2019-02-26T09:29:56.989Z,8.7
2019-02-26T09:35:05.654Z,6.8
2019-02-26T09:40:12.147Z,7.3
2019-02-26T09:45:20.884Z,6.8
2019-02-26T09:50:23.825Z,7.3
2019-02-26T09:55:29.156Z,6.8
2019-02-26T10:00:34.831Z,6.9
2019-02-26T10:05:39.290Z,6.8
2019-02-26T10:10:42.878Z,6.7
2019-02-26T10:15:48.761Z,6.5
2019-02-26T10:20:55.586Z,6.9
2019-02-26T10:26:05.700Z,6.6
2019-02-26T10:31:10.381Z,6.6
2019-02-26T10:36:08.400Z,6.3
2019-02-26T10:41:12.248Z,6.4
2019-02-26T10:46:18.781Z,6.3
2019-02-26T10:51:27.255Z,6.5
2019-02-26T10:56:42.042Z,11.3
2019-02-26T11:01:39.409Z,10.5
2019-02-26T11:06:47.116Z,10.3
2019-02-26T11:11:54.748Z,9.8
2019-02-26T11:16:59.953Z,10.4
2019-02-26T11:22:06.144Z,10.2
2019-02-26T11:27:11.844Z,9.7
2019-02-26T11:32:17.705Z,9.7
2019-02-26T11:37:27.134Z,8.5
2019-02-26T11:42:28.722Z,8.4
2019-02-26T11:47:39.054Z,7.4
2019-02-26T11:52:37.809Z,7.5
2019-02-26T11:57:49.716Z,7.4
2019-02-26T12:02:45.397Z,6.7
2019-02-26T12:07:56.259Z,6.8
2019-02-26T12:12:56.716Z,6.5
2019-02-26T12:17:59.018Z,6.4
2019-02-26T12:23:11.498Z,5.9
2019-02-26T12:28:14.939Z,6.1
2019-02-26T12:33:20.317Z,6.2
2019-02-26T12:38:25.810Z,6
2019-02-26T12:43:36.447Z,6
2019-02-26T12:50:41.437Z,6.2
2019-02-26T12:53:50.180Z,5.7
2019-02-26T12:58:54.462Z,6.1
2019-02-26T13:03:55.537Z,5.5
2019-02-26T13:08:51.688Z,5.8
2019-02-26T13:13:57.887Z,5.6
2019-02-26T13:19:05.452Z,5.5
2019-02-26T13:26:19.520Z,5.3
2019-02-26T13:34:40.074Z,5.3
2019-02-26T13:39:46.571Z,5.2
2019-02-26T13:44:52.012Z,5.2
2019-02-26T13:49:57.103Z,5.5
2019-02-26T13:55:02.885Z,5
2019-02-26T14:00:07.894Z,5.1
2019-02-26T14:05:13.486Z,5.3
2019-02-26T14:10:19.619Z,9.4
2019-02-26T14:15:25.041Z,8.9
2019-02-26T14:20:31.489Z,8.8
2019-02-26T14:25:37.191Z,10.1
2019-02-26T14:30:42.462Z,8.8
2019-02-26T14:35:48.211Z,8.5
2019-02-26T14:40:54.596Z,7.9
2019-02-26T14:46:00.312Z,7.6
2019-02-26T14:51:05.889Z,7.7
2019-02-26T14:56:12.666Z,7.1
2019-02-26T15:01:18.516Z,7.2
2019-02-26T15:06:26.949Z,7.1
2019-02-26T15:11:32.529Z,6.7
2019-02-26T15:16:39.325Z,6.6
2019-02-26T15:21:44.985Z,6.3
2019-02-26T15:26:50.865Z,6.4
2019-02-26T15:31:56.926Z,6.1
2019-02-26T15:37:03.729Z,6.2
2019-02-26T15:42:09.716Z,6.3
2019-02-26T15:47:15.634Z,6.1
2019-02-26T15:52:23.201Z,6
2019-02-26T15:57:31.056Z,5.5
2019-02-26T16:02:37.805Z,6.1
2019-02-26T16:07:44.184Z,5.8
2019-02-26T16:12:49.656Z,5.7
2019-02-26T16:17:59.752Z,5.6
2019-02-26T16:22:55.963Z,5.5
2019-02-26T16:28:03.671Z,5.6
2019-02-26T16:33:11.137Z,5.7
2019-02-26T16:38:11.686Z,5.8
2019-02-26T16:43:19.247Z,5.6
2019-02-26T16:48:27.992Z,5.6
2019-02-26T16:53:35.041Z,5.5
2019-02-26T16:58:41.086Z,5.8
2019-02-26T17:03:47.454Z,5.8
2019-02-26T17:08:52.924Z,5.9
2019-02-26T17:13:59.414Z,5.7
2019-02-26T17:19:04.174Z,5.6
2019-02-26T17:24:09.680Z,5.8
2019-02-26T17:29:19.178Z,6.6
2019-02-26T17:34:25.156Z,6.6
2019-02-26T17:39:30.505Z,7.7
2019-02-26T17:44:35.753Z,6.8
2019-02-26T17:49:41.497Z,6.5
2019-02-26T17:54:48.600Z,7
2019-02-26T17:59:55.267Z,6.7
2019-02-26T18:05:02.369Z,6.9
2019-02-26T18:10:07.782Z,6.6
2019-02-26T18:15:20.740Z,6.5
2019-02-26T18:20:28.833Z,6.3
2019-02-26T18:25:34.156Z,6
2019-02-26T18:30:39.329Z,6.1
2019-02-26T18:35:44.563Z,5.8
2019-02-26T18:40:50.445Z,5.5
2019-02-26T18:45:56.044Z,5.6
2019-02-26T18:51:04.143Z,6.1
2019-02-26T18:56:09.924Z,6.2
2019-02-26T19:01:15.158Z,6.1
2019-02-26T19:06:27.541Z,12.1
2019-02-26T19:11:33.189Z,7.1
2019-02-26T19:16:38.494Z,3.6
2019-02-26T19:21:44.443Z,2.4
2019-02-26T19:26:50.518Z,2.7
2019-02-26T19:31:56.684Z,2.6
2019-02-26T19:37:00.981Z,2.3
2019-02-26T19:42:06.551Z,2.3
2019-02-26T19:47:15.312Z,2.2
2019-02-26T19:52:20.981Z,2.2
2019-02-26T19:57:27.543Z,2.4
2019-02-26T20:02:34.908Z,2.4
2019-02-26T20:07:39.199Z,2.1
2019-02-26T20:12:45.268Z,2.3
2019-02-26T20:17:50.665Z,2.5
2019-02-26T20:22:56.839Z,2.4
2019-02-26T20:28:06.601Z,2.5
2019-02-26T20:33:08.016Z,2.3
2019-02-26T20:38:13.130Z,2.3
2019-02-26T20:43:18.554Z,2.2
2019-02-26T20:48:24.259Z,2.3
2019-02-26T20:53:31.025Z,2.2
2019-02-26T20:58:36.500Z,2.3
2019-02-26T21:03:42.564Z,2.1
2019-02-26T21:08:46.805Z,2.4
2019-02-26T21:13:53.013Z,2.5
2019-02-26T21:18:58.269Z,2.4
2019-02-26T21:24:07.454Z,2.2
2019-02-26T21:29:13.589Z,2.3
2019-02-26T21:34:18.960Z,2.3
2019-02-26T21:39:24.417Z,2.2
2019-02-26T21:44:29.975Z,2.4
2019-02-26T21:49:35.209Z,2.5
2019-02-26T21:54:42.769Z,2.8
2019-02-26T21:59:51.016Z,3.8
2019-02-26T22:04:55.910Z,3.6
2019-02-26T22:10:01.081Z,4.2
2019-02-26T22:15:01.377Z,4.1
2019-02-26T22:20:21.542Z,3.8
2019-02-26T22:25:17.496Z,3.8
2019-02-26T22:30:13.362Z,3.8
2019-02-26T22:35:18.914Z,4.5
2019-02-26T22:40:28.837Z,4
2019-02-26T22:45:28.825Z,4.5
2019-02-26T22:50:34.758Z,4.3
2019-02-26T22:55:40.763Z,4.1
2019-02-26T23:00:49.587Z,4.4
2019-02-26T23:06:00.069Z,4.9
2019-02-26T23:10:58.300Z,4.7
2019-02-26T23:16:03.560Z,4.8
2019-02-26T23:21:09.391Z,4.3
2019-02-26T23:26:15.610Z,4.5
2019-02-26T23:31:21.494Z,4.6
2019-02-26T23:36:29.477Z,4.5
2019-02-26T23:41:35.434Z,4.6
2019-02-26T23:46:40.909Z,4.2
2019-02-26T23:51:46.485Z,4.1
2019-02-26T23:56:53.481Z,4.5
